Vasiliy Bozhenko — URHP — position and weather

sailwx.info

Track history (hours):
 
Tides and Currents Weather Stations Pressure Air Temp Water Temp Dewpoint Dewpoint Depression Visibility Wind Speed Wind Dir Waves Ship Positions

Vasiliy Bozhenko

Last reported at 2014-Jul-30 00:31 UTC. Time now 2014-Jul-30 13:19 UTC.
Position N 46°34' E 032°27'.

Length 114 m; draft 3.8 m.

Type: Cargo ship. MMSI: 272085000.

Date/timePositionNaut miles runAvg speedWind from/ knotsBaromVisibWave heightAir tempDewpointWater temp
2014-Jul-30 00:31N 46°34' E 032°27'6 6.1
2014-Jul-29 23:30N 46°33' E 032°18'6 6.7
2014-Jul-29 22:33N 46°32' E 032°09'6 6.4
2014-Jul-29 21:33N 46°33' E 031°59'7 6.6
2014-Jul-29 20:33N 46°35' E 031°50'8 6.6
2014-Jul-29 19:23N 46°35' E 031°39'78 6.6
2014-Jul-29 07:33N 45°23' E 030°59'  
2014-Jul-26 15:33N 40°26' E 028°60'4 3.8
2014-Jul-26 14:31N 40°25' E 029°05'0 0.0
2014-Jul-26 13:31N 40°25' E 029°05'0 0.0
2014-Jul-26 12:16N 40°25' E 029°05'0 0.0
2014-Jul-26 11:28N 40°25' E 029°05'0 0.0
2014-Jul-26 10:28N 40°25' E 029°05'0 0.0
2014-Jul-26 09:30N 40°25' E 029°05'0 0.0
2014-Jul-26 08:17N 40°25' E 029°05'0 0.0
2014-Jul-26 07:29N 40°25' E 029°05'0 0.0
2014-Jul-26 05:28N 40°25' E 029°05'0 0.0
2014-Jul-26 04:23N 40°25' E 029°05'0 0.0
2014-Jul-26 03:29N 40°25' E 029°05'0 0.0
2014-Jul-26 02:29N 40°25' E 029°05'0 0.0
2014-Jul-26 01:23N 40°25' E 029°05'0 0.0
2014-Jul-26 00:23N 40°25' E 029°05'0 0.0
2014-Jul-25 23:17N 40°25' E 029°05'0 0.0
2014-Jul-25 22:32N 40°25' E 029°05'0 0.0
2014-Jul-25 20:32N 40°25' E 029°05'0 0.0
2014-Jul-25 19:16N 40°25' E 029°05'0 0.0
2014-Jul-25 18:24N 40°25' E 029°05'0 0.0
2014-Jul-25 17:29N 40°25' E 029°05'0 0.0
2014-Jul-25 16:18N 40°25' E 029°05'0 0.0
2014-Jul-25 15:25N 40°25' E 029°05'0 0.0
2014-Jul-25 14:29N 40°25' E 029°05'0 0.0
2014-Jul-25 13:29N 40°25' E 029°05'0 0.0
2014-Jul-25 12:29N 40°25' E 029°05'0 0.0
2014-Jul-25 11:29N 40°25' E 029°05'0 0.0
2014-Jul-25 10:23N 40°25' E 029°05'0 0.0
2014-Jul-25 09:29N 40°25' E 029°05'0 0.0
2014-Jul-25 08:16N 40°25' E 029°05'0 0.0
2014-Jul-25 07:23N 40°25' E 029°05'0 0.0
2014-Jul-25 06:14N 40°25' E 029°05'0 0.0
2014-Jul-25 05:32N 40°25' E 029°05'0 0.0
2014-Jul-25 04:32N 40°25' E 029°05'0 0.0
2014-Jul-25 03:27N 40°25' E 029°05'0 0.0
2014-Jul-25 02:33N 40°25' E 029°05'0 0.0
2014-Jul-25 01:06N 40°25' E 029°05'0 0.0
2014-Jul-25 00:32N 40°25' E 029°05'0 0.0
2014-Jul-24 23:28N 40°25' E 029°05'0 0.0
2014-Jul-24 22:16N 40°25' E 029°05'0 0.0
2014-Jul-24 21:28N 40°25' E 029°05'0 0.0
2014-Jul-24 20:24N 40°25' E 029°05'0 0.0
2014-Jul-24 19:28N 40°25' E 029°05'0 0.0
2014-Jul-24 18:11N 40°25' E 029°05'0 0.0
2014-Jul-24 17:29N 40°25' E 029°05'0 0.0
2014-Jul-24 16:23N 40°25' E 029°05'0 0.0
2014-Jul-24 15:29N 40°25' E 029°05'0 0.0
2014-Jul-24 14:15N 40°25' E 029°05'0 0.0
2014-Jul-24 13:21N 40°25' E 029°05'0 0.0
2014-Jul-24 12:17N 40°25' E 029°05'0 0.0
2014-Jul-24 11:05N 40°25' E 029°05'0 0.0
2014-Jul-24 10:29N 40°25' E 029°05'0 0.0
2014-Jul-24 09:27N 40°25' E 029°05'0 0.0
2014-Jul-24 08:32N 40°25' E 029°05'0 0.0
2014-Jul-24 07:26N 40°25' E 029°05'0 0.0
2014-Jul-24 06:22N 40°25' E 029°05'0 0.0
2014-Jul-24 05:28N 40°25' E 029°05'0 0.0
2014-Jul-24 04:28N 40°25' E 029°05'0 0.0
2014-Jul-24 03:29N 40°25' E 029°05'0 0.0
2014-Jul-24 02:29N 40°25' E 029°05'0 0.0
2014-Jul-24 01:31N 40°25' E 029°05'0 0.0
2014-Jul-24 00:31N 40°25' E 029°05'0 0.0
2014-Jul-23 23:31N 40°25' E 029°05'0 0.0
2014-Jul-23 22:19N 40°25' E 029°05'0 0.0
2014-Jul-23 21:32N 40°25' E 029°05'0 0.0
2014-Jul-23 20:32N 40°25' E 029°05'0 0.0
2014-Jul-23 19:32N 40°25' E 029°05'0 0.0
2014-Jul-23 18:32N 40°25' E 029°05'0 0.0
2014-Jul-23 17:26N 40°25' E 029°05'0 0.0
2014-Jul-23 16:20N 40°25' E 029°05'0 0.0
2014-Jul-23 15:26N 40°25' E 029°05'0 0.0
2014-Jul-23 14:23N 40°25' E 029°05'0 0.0
2014-Jul-23 13:33N 40°25' E 029°05'0 0.0
2014-Jul-23 12:33N 40°25' E 029°05'0 0.0
2014-Jul-23 11:22N 40°25' E 029°05'0 0.0
2014-Jul-23 10:16N 40°25' E 029°05'0 0.0
2014-Jul-23 09:28N 40°25' E 029°05'0 0.0
2014-Jul-23 08:24N 40°25' E 029°05'0 0.0
2014-Jul-23 07:15N 40°25' E 029°05'0 0.0
2014-Jul-23 05:27N 40°25' E 029°05'0 0.0
2014-Jul-23 04:32N 40°25' E 029°05'0 0.0
2014-Jul-23 03:23N 40°25' E 029°05'0 0.0
2014-Jul-23 02:22N 40°25' E 029°05'0 0.0
2014-Jul-23 01:33N 40°25' E 029°05'0 0.0
2014-Jul-23 00:22N 40°25' E 029°05'0 0.0
2014-Jul-22 23:16N 40°25' E 029°05'0 0.0
2014-Jul-22 22:28N 40°25' E 029°05'0 0.0
2014-Jul-22 21:31N 40°25' E 029°05'0 0.0
2014-Jul-22 20:26N 40°25' E 029°05'0 0.0
2014-Jul-22 19:13N 40°25' E 029°05'0 0.0
2014-Jul-22 18:06N 40°25' E 029°05'0 0.0
2014-Jul-22 17:29N 40°25' E 029°05'0 0.0
2014-Jul-22 16:29N 40°25' E 029°05'0 0.0
2014-Jul-22 15:29N 40°25' E 029°05'0 0.0
2014-Jul-22 14:19N 40°25' E 029°05'  
Track history (hours):
 
Tides and Currents Weather Stations Pressure Air Temp Water Temp Dewpoint Dewpoint Depression Visibility Wind Speed Wind Dir Waves Ship Positions

Vasiliy Bozhenko

Last reported at 2014-Jul-30 00:31 UTC. Time now 2014-Jul-30 13:20 UTC.
Position N 46°34' E 032°27'.

Length 114 m; draft 3.8 m.

Type: Cargo ship. MMSI: 272085000.

Date/timePositionNaut miles runAvg speedWind from/ knotsBaromVisibWave heightAir tempDewpointWater temp
2014-Jul-30 00:31N 46°34' E 032°27'6 6.1
2014-Jul-29 23:30N 46°33' E 032°18'6 6.7
2014-Jul-29 22:33N 46°32' E 032°09'6 6.4
2014-Jul-29 21:33N 46°33' E 031°59'7 6.6
2014-Jul-29 20:33N 46°35' E 031°50'8 6.6
2014-Jul-29 19:23N 46°35' E 031°39'78 6.6
2014-Jul-29 07:33N 45°23' E 030°59'  
2014-Jul-26 15:33N 40°26' E 028°60'4 3.8
2014-Jul-26 14:31N 40°25' E 029°05'0 0.0
2014-Jul-26 13:31N 40°25' E 029°05'0 0.0
2014-Jul-26 12:16N 40°25' E 029°05'0 0.0
2014-Jul-26 11:28N 40°25' E 029°05'0 0.0
2014-Jul-26 10:28N 40°25' E 029°05'0 0.0
2014-Jul-26 09:30N 40°25' E 029°05'0 0.0
2014-Jul-26 08:17N 40°25' E 029°05'0 0.0
2014-Jul-26 07:29N 40°25' E 029°05'0 0.0
2014-Jul-26 05:28N 40°25' E 029°05'0 0.0
2014-Jul-26 04:23N 40°25' E 029°05'0 0.0
2014-Jul-26 03:29N 40°25' E 029°05'0 0.0
2014-Jul-26 02:29N 40°25' E 029°05'0 0.0
2014-Jul-26 01:23N 40°25' E 029°05'0 0.0
2014-Jul-26 00:23N 40°25' E 029°05'0 0.0
2014-Jul-25 23:17N 40°25' E 029°05'0 0.0
2014-Jul-25 22:32N 40°25' E 029°05'0 0.0
2014-Jul-25 20:32N 40°25' E 029°05'0 0.0
2014-Jul-25 19:16N 40°25' E 029°05'0 0.0
2014-Jul-25 18:24N 40°25' E 029°05'0 0.0
2014-Jul-25 17:29N 40°25' E 029°05'0 0.0
2014-Jul-25 16:18N 40°25' E 029°05'0 0.0
2014-Jul-25 15:25N 40°25' E 029°05'0 0.0
2014-Jul-25 14:29N 40°25' E 029°05'0 0.0
2014-Jul-25 13:29N 40°25' E 029°05'0 0.0
2014-Jul-25 12:29N 40°25' E 029°05'0 0.0
2014-Jul-25 11:29N 40°25' E 029°05'0 0.0
2014-Jul-25 10:23N 40°25' E 029°05'0 0.0
2014-Jul-25 09:29N 40°25' E 029°05'0 0.0
2014-Jul-25 08:16N 40°25' E 029°05'0 0.0
2014-Jul-25 07:23N 40°25' E 029°05'0 0.0
2014-Jul-25 06:14N 40°25' E 029°05'0 0.0
2014-Jul-25 05:32N 40°25' E 029°05'0 0.0
2014-Jul-25 04:32N 40°25' E 029°05'0 0.0
2014-Jul-25 03:27N 40°25' E 029°05'0 0.0
2014-Jul-25 02:33N 40°25' E 029°05'0 0.0
2014-Jul-25 01:06N 40°25' E 029°05'0 0.0
2014-Jul-25 00:32N 40°25' E 029°05'0 0.0
2014-Jul-24 23:28N 40°25' E 029°05'0 0.0
2014-Jul-24 22:16N 40°25' E 029°05'0 0.0
2014-Jul-24 21:28N 40°25' E 029°05'0 0.0
2014-Jul-24 20:24N 40°25' E 029°05'0 0.0
2014-Jul-24 19:28N 40°25' E 029°05'0 0.0
2014-Jul-24 18:11N 40°25' E 029°05'0 0.0
2014-Jul-24 17:29N 40°25' E 029°05'0 0.0
2014-Jul-24 16:23N 40°25' E 029°05'0 0.0
2014-Jul-24 15:29N 40°25' E 029°05'0 0.0
2014-Jul-24 14:15N 40°25' E 029°05'0 0.0
2014-Jul-24 13:21N 40°25' E 029°05'0 0.0
2014-Jul-24 12:17N 40°25' E 029°05'0 0.0
2014-Jul-24 11:05N 40°25' E 029°05'0 0.0
2014-Jul-24 10:29N 40°25' E 029°05'0 0.0
2014-Jul-24 09:27N 40°25' E 029°05'0 0.0
2014-Jul-24 08:32N 40°25' E 029°05'0 0.0
2014-Jul-24 07:26N 40°25' E 029°05'0 0.0
2014-Jul-24 06:22N 40°25' E 029°05'0 0.0
2014-Jul-24 05:28N 40°25' E 029°05'0 0.0
2014-Jul-24 04:28N 40°25' E 029°05'0 0.0
2014-Jul-24 03:29N 40°25' E 029°05'0 0.0
2014-Jul-24 02:29N 40°25' E 029°05'0 0.0
2014-Jul-24 01:31N 40°25' E 029°05'0 0.0
2014-Jul-24 00:31N 40°25' E 029°05'0 0.0
2014-Jul-23 23:31N 40°25' E 029°05'0 0.0
2014-Jul-23 22:19N 40°25' E 029°05'0 0.0
2014-Jul-23 21:32N 40°25' E 029°05'0 0.0
2014-Jul-23 20:32N 40°25' E 029°05'0 0.0
2014-Jul-23 19:32N 40°25' E 029°05'0 0.0
2014-Jul-23 18:32N 40°25' E 029°05'0 0.0
2014-Jul-23 17:26N 40°25' E 029°05'0 0.0
2014-Jul-23 16:20N 40°25' E 029°05'0 0.0
2014-Jul-23 15:26N 40°25' E 029°05'0 0.0
2014-Jul-23 14:23N 40°25' E 029°05'0 0.0
2014-Jul-23 13:33N 40°25' E 029°05'0 0.0
2014-Jul-23 12:33N 40°25' E 029°05'0 0.0
2014-Jul-23 11:22N 40°25' E 029°05'0 0.0
2014-Jul-23 10:16N 40°25' E 029°05'0 0.0
2014-Jul-23 09:28N 40°25' E 029°05'0 0.0
2014-Jul-23 08:24N 40°25' E 029°05'0 0.0
2014-Jul-23 07:15N 40°25' E 029°05'0 0.0
2014-Jul-23 05:27N 40°25' E 029°05'0 0.0
2014-Jul-23 04:32N 40°25' E 029°05'0 0.0
2014-Jul-23 03:23N 40°25' E 029°05'0 0.0
2014-Jul-23 02:22N 40°25' E 029°05'0 0.0
2014-Jul-23 01:33N 40°25' E 029°05'0 0.0
2014-Jul-23 00:22N 40°25' E 029°05'0 0.0
2014-Jul-22 23:16N 40°25' E 029°05'0 0.0
2014-Jul-22 22:28N 40°25' E 029°05'0 0.0
2014-Jul-22 21:31N 40°25' E 029°05'0 0.0
2014-Jul-22 20:26N 40°25' E 029°05'0 0.0
2014-Jul-22 19:13N 40°25' E 029°05'0 0.0
2014-Jul-22 18:06N 40°25' E 029°05'0 0.0
2014-Jul-22 17:29N 40°25' E 029°05'0 0.0
2014-Jul-22 16:29N 40°25' E 029°05'0 0.0
2014-Jul-22 15:29N 40°25' E 029°05'0 0.0
2014-Jul-22 14:19N 40°25' E 029°05'  

Dump ship's entire track history